createdAt,value
2022-07-25T00:00:45.670Z,566.80
2022-07-25T00:03:19.016Z,592.60
2022-07-25T00:05:46.782Z,580.53
2022-07-25T00:08:14.166Z,571.58
2022-07-25T00:10:42.033Z,595.08
2022-07-25T00:13:09.389Z,577.90
2022-07-25T00:15:37.932Z,605.22
2022-07-25T00:18:05.627Z,599.65
2022-07-25T00:20:33.318Z,591.60
2022-07-25T00:23:00.604Z,587.75
2022-07-25T00:25:30.170Z,587.45
2022-07-25T00:28:00.197Z,590.60
2022-07-25T00:30:27.762Z,605.00
2022-07-25T00:32:55.270Z,629.60
2022-07-25T00:35:22.960Z,606.47
2022-07-25T00:37:51.028Z,620.10
2022-07-25T00:40:18.267Z,631.85
2022-07-25T00:42:45.520Z,658.70
2022-07-25T00:45:12.800Z,649.28
2022-07-25T00:47:42.635Z,667.72
2022-07-25T00:50:12.331Z,674.55
2022-07-25T00:52:40.616Z,672.45
2022-07-25T00:55:08.392Z,664.10
2022-07-25T00:57:36.122Z,660.42
2022-07-25T01:00:07.242Z,662.70
2022-07-25T01:02:34.792Z,643.45
2022-07-25T01:05:07.106Z,650.15
2022-07-25T01:07:39.708Z,644.38
2022-07-25T01:10:08.389Z,641.70
2022-07-25T01:12:50.397Z,643.13
2022-07-25T01:15:24.613Z,652.15
2022-07-25T01:17:54.379Z,655.92
2022-07-25T01:20:26.699Z,656.20
2022-07-25T01:22:55.022Z,652.67
2022-07-25T01:25:23.724Z,641.55
2022-07-25T01:27:55.776Z,639.63
2022-07-25T01:30:24.620Z,643.55
2022-07-25T01:32:54.953Z,620.63
2022-07-25T01:35:24.912Z,597.75
2022-07-25T01:37:55.012Z,617.17
2022-07-25T01:40:24.894Z,624.60
2022-07-25T01:42:52.200Z,649.83
2022-07-25T01:45:19.505Z,653.25
2022-07-25T01:47:48.945Z,645.83
2022-07-25T01:50:19.163Z,668.92
2022-07-25T01:52:46.493Z,678.63
2022-07-25T01:55:18.039Z,679.55
2022-07-25T01:57:50.032Z,683.13
2022-07-25T02:00:18.056Z,669.17
2022-07-25T02:02:48.660Z,681.97
2022-07-25T02:05:16.300Z,678.30
2022-07-25T02:07:43.549Z,694.38
2022-07-25T02:10:13.474Z,683.72
2022-07-25T02:12:44.138Z,686.30
2022-07-25T02:15:13.981Z,682.67
2022-07-25T02:17:47.057Z,676.80
2022-07-25T02:20:14.333Z,695.17
2022-07-25T02:22:41.591Z,704.30
2022-07-25T02:25:09.126Z,694.70
2022-07-25T02:27:36.657Z,661.78
2022-07-25T02:30:05.273Z,651.10
2022-07-25T02:32:35.213Z,664.95
2022-07-25T02:35:02.484Z,682.67
2022-07-25T02:37:29.725Z,667.63
2022-07-25T02:39:57.758Z,630.15
2022-07-25T02:42:25.149Z,674.75
2022-07-25T02:44:55.401Z,684.55
2022-07-25T02:47:22.725Z,681.22
2022-07-25T02:49:52.603Z,682.45
2022-07-25T02:52:20.203Z,667.65
2022-07-25T02:54:47.709Z,671.72
2022-07-25T02:57:17.194Z,663.78
2022-07-25T02:59:44.440Z,681.95
2022-07-25T03:02:14.596Z,689.10
2022-07-25T03:04:44.080Z,711.47
2022-07-25T03:07:16.622Z,674.63
2022-07-25T03:09:44.319Z,689.13
2022-07-25T03:12:14.887Z,685.00
2022-07-25T03:14:42.223Z,677.05
2022-07-25T03:17:12.770Z,710.58
2022-07-25T03:19:40.770Z,680.72
2022-07-25T03:22:08.768Z,691.22
2022-07-25T03:24:36.332Z,681.95
2022-07-25T03:27:06.161Z,683.88
2022-07-25T03:29:33.763Z,672.67
2022-07-25T03:32:01.242Z,668.83
2022-07-25T03:34:28.815Z,684.08
2022-07-25T03:36:58.593Z,659.88
2022-07-25T03:39:26.444Z,653.65
2022-07-25T03:41:55.862Z,631.40
2022-07-25T03:44:26.006Z,658.08
2022-07-25T03:46:55.783Z,636.55
2022-07-25T03:49:23.109Z,622.72
2022-07-25T03:51:50.365Z,628.70
2022-07-25T03:54:17.665Z,613.45
2022-07-25T03:56:48.858Z,622.92
2022-07-25T03:59:18.998Z,628.20
2022-07-25T04:01:47.956Z,604.08
2022-07-25T04:04:15.753Z,592.40
2022-07-25T04:06:45.736Z,569.15
2022-07-25T04:09:15.880Z,579.92
2022-07-25T04:11:43.698Z,587.53
2022-07-25T04:14:11.021Z,588.42
2022-07-25T04:16:38.550Z,601.20
2022-07-25T04:19:07.683Z,598.85
2022-07-25T04:21:36.260Z,629.08
2022-07-25T04:24:04.057Z,588.67
2022-07-25T04:26:34.132Z,588.85
2022-07-25T04:29:03.816Z,600.60
2022-07-25T04:31:36.432Z,592.53
2022-07-25T04:34:04.964Z,608.30
2022-07-25T04:36:34.936Z,606.85
2022-07-25T04:39:02.740Z,598.45
2022-07-25T04:41:31.051Z,584.35
2022-07-25T04:43:58.910Z,592.15
2022-07-25T04:46:26.433Z,582.97
2022-07-25T04:48:53.775Z,587.55
2022-07-25T04:51:23.487Z,595.28
2022-07-25T04:53:50.955Z,595.78
2022-07-25T04:56:20.706Z,609.80
2022-07-25T04:58:48.620Z,616.58
2022-07-25T05:01:16.125Z,661.85
2022-07-25T05:03:49.769Z,697.00
2022-07-25T05:06:21.556Z,651.88
2022-07-25T05:08:48.888Z,710.55
2022-07-25T05:11:16.747Z,730.95
2022-07-25T05:13:44.743Z,743.42
2022-07-25T05:16:12.531Z,754.78
2022-07-25T05:18:39.843Z,758.30
2022-07-25T05:21:11.144Z,765.20
2022-07-25T05:23:39.092Z,780.92
2022-07-25T05:26:06.451Z,778.30
2022-07-25T05:28:34.482Z,772.40
2022-07-25T05:31:02.433Z,782.72
2022-07-25T05:33:33.703Z,770.65
2022-07-25T05:36:02.754Z,775.97
2022-07-25T05:38:30.392Z,761.17
2022-07-25T05:41:00.435Z,746.80
2022-07-25T05:43:30.260Z,737.83
2022-07-25T05:46:02.702Z,733.50
2022-07-25T05:48:32.555Z,725.72
2022-07-25T05:51:03.317Z,747.63
2022-07-25T05:53:30.597Z,744.08
2022-07-25T05:55:58.124Z,733.78
2022-07-25T05:58:29.631Z,732.58
2022-07-25T06:01:01.159Z,739.05
2022-07-25T06:03:31.395Z,736.22
2022-07-25T06:05:58.735Z,741.45
2022-07-25T06:08:30.964Z,739.97
2022-07-25T06:11:03.917Z,707.95
2022-07-25T06:16:05.615Z,750.47
2022-07-25T06:18:32.953Z,744.63
2022-07-25T06:21:00.506Z,722.90
2022-07-25T06:23:28.302Z,744.67
2022-07-25T06:25:55.616Z,721.10
2022-07-25T06:28:25.404Z,744.42
2022-07-25T06:30:52.780Z,709.65
2022-07-25T06:33:20.330Z,711.72
2022-07-25T06:35:47.603Z,681.97
2022-07-25T06:38:15.516Z,686.53
2022-07-25T06:40:43.161Z,651.90
2022-07-25T06:43:11.228Z,658.00
2022-07-25T06:45:38.545Z,657.60
2022-07-25T06:48:06.919Z,636.58
2022-07-25T06:50:39.347Z,643.35
2022-07-25T06:53:06.662Z,615.03
2022-07-25T06:55:34.215Z,645.83
2022-07-25T06:58:01.621Z,647.13
2022-07-25T07:00:32.144Z,671.08
2022-07-25T07:03:02.505Z,624.50
2022-07-25T07:05:33.585Z,594.17
2022-07-25T07:08:01.353Z,610.85
2022-07-25T07:10:29.566Z,603.22
2022-07-25T07:13:08.114Z,606.95
2022-07-25T07:15:37.780Z,606.00
2022-07-25T07:18:07.656Z,598.60
2022-07-25T07:20:35.154Z,601.58
2022-07-25T07:23:02.898Z,621.78
2022-07-25T07:25:30.831Z,623.90
2022-07-25T07:27:59.144Z,633.67
2022-07-25T07:30:52.230Z,635.83
2022-07-25T07:33:17.603Z,647.75
2022-07-25T07:35:45.501Z,692.42
2022-07-25T07:38:18.364Z,624.83
2022-07-25T07:40:46.188Z,676.50
2022-07-25T07:43:14.116Z,667.78
2022-07-25T07:45:44.163Z,658.10
2022-07-25T07:48:13.371Z,710.30
2022-07-25T07:50:41.157Z,687.33
2022-07-25T07:53:11.664Z,683.45
2022-07-25T07:56:05.445Z,685.92
2022-07-25T07:58:32.678Z,675.13
2022-07-25T08:01:02.238Z,694.20
2022-07-25T08:03:32.409Z,720.80
2022-07-25T08:06:00.967Z,711.30
2022-07-25T08:08:31.320Z,705.92
2022-07-25T08:10:59.866Z,701.45
2022-07-25T08:13:33.203Z,674.28
2022-07-25T08:16:03.796Z,676.97
2022-07-25T08:18:34.923Z,683.25
2022-07-25T08:21:06.005Z,701.58
2022-07-25T08:23:35.460Z,747.17
2022-07-25T08:26:04.043Z,732.55
2022-07-25T08:28:32.528Z,739.72
2022-07-25T08:31:00.451Z,705.03
2022-07-25T08:33:30.928Z,666.03
2022-07-25T08:36:01.142Z,660.10
2022-07-25T08:38:29.531Z,647.72
2022-07-25T08:40:58.054Z,640.35
2022-07-25T08:43:25.588Z,636.55
2022-07-25T08:45:56.054Z,634.55
2022-07-25T08:48:54.333Z,630.28
2022-07-25T08:51:25.052Z,633.22
2022-07-25T08:53:55.150Z,613.42
2022-07-25T08:56:22.447Z,610.50
2022-07-25T08:58:50.946Z,626.85
2022-07-25T09:01:18.361Z,621.25
2022-07-25T09:03:48.601Z,613.08
2022-07-25T09:06:18.485Z,619.35
2022-07-25T09:09:04.695Z,613.58
2022-07-25T09:11:37.385Z,623.22
2022-07-25T09:14:08.626Z,630.30
2022-07-25T09:16:43.236Z,633.10
2022-07-25T09:19:21.697Z,532.60
2022-07-25T09:22:07.124Z,587.20
2022-07-25T09:24:48.022Z,524.83
2022-07-25T09:27:18.219Z,541.92
2022-07-25T09:29:45.936Z,513.90
2022-07-25T09:32:22.066Z,524.25
2022-07-25T09:34:52.640Z,554.13
2022-07-25T09:37:26.670Z,549.47
2022-07-25T09:39:54.349Z,610.30
2022-07-25T09:42:26.391Z,581.97
2022-07-25T09:45:17.495Z,490.50
2022-07-25T09:47:56.484Z,468.95
2022-07-25T09:50:26.065Z,420.17
2022-07-25T09:52:56.584Z,408.48
2022-07-25T09:55:24.860Z,442.80
2022-07-25T09:57:55.450Z,484.75
2022-07-25T10:00:26.560Z,526.50
2022-07-25T10:03:15.490Z,485.55
2022-07-25T10:06:10.004Z,491.30
2022-07-25T10:08:39.073Z,478.10
2022-07-25T10:11:20.442Z,465.35
2022-07-25T10:13:48.386Z,467.27
2022-07-25T10:16:24.101Z,501.02
2022-07-25T10:18:57.239Z,518.95
2022-07-25T10:21:29.301Z,514.90
2022-07-25T10:24:13.338Z,479.77
2022-07-25T10:26:52.732Z,441.85
2022-07-25T10:29:19.997Z,468.92
2022-07-25T10:31:51.532Z,482.83
2022-07-25T10:34:33.154Z,480.75
2022-07-25T10:37:21.297Z,467.05
2022-07-25T10:39:50.847Z,459.00
2022-07-25T10:42:22.125Z,408.98
2022-07-25T10:44:57.409Z,434.17
2022-07-25T10:47:30.556Z,445.65
2022-07-25T10:50:16.976Z,388.33
2022-07-25T10:52:59.588Z,411.38
2022-07-25T10:55:29.317Z,424.65
2022-07-25T10:58:22.119Z,440.92
2022-07-25T11:00:51.278Z,441.00
2022-07-25T11:03:23.156Z,481.77
2022-07-25T11:05:54.748Z,476.75
2022-07-25T11:08:32.078Z,524.25
2022-07-25T11:11:04.614Z,498.23
2022-07-25T11:13:42.856Z,502.83
2022-07-25T11:16:11.338Z,472.58
2022-07-25T11:18:44.438Z,498.77
2022-07-25T11:21:12.346Z,522.65
2022-07-25T11:23:41.268Z,532.63
2022-07-25T11:26:13.774Z,564.78
2022-07-25T11:28:44.188Z,538.00
2022-07-25T11:31:13.424Z,551.72
2022-07-25T11:33:43.926Z,551.50
2022-07-25T11:36:12.707Z,589.47
2022-07-25T11:38:43.609Z,596.20
2022-07-25T11:41:11.339Z,596.50
2022-07-25T11:43:39.229Z,621.05
2022-07-25T11:46:08.383Z,649.72
2022-07-25T11:48:39.282Z,662.42
2022-07-25T11:51:19.093Z,687.03
2022-07-25T11:53:50.306Z,663.15
2022-07-25T11:56:41.354Z,639.90
2022-07-25T11:59:12.837Z,638.67
2022-07-25T12:01:45.082Z,661.22
2022-07-25T12:04:19.972Z,689.47
2022-07-25T12:06:49.000Z,699.45
2022-07-25T12:09:19.613Z,695.25
2022-07-25T12:11:48.886Z,704.53
2022-07-25T12:14:18.839Z,715.40
2022-07-25T12:16:48.747Z,708.72
2022-07-25T12:19:22.078Z,722.53
2022-07-25T12:21:49.339Z,719.30
2022-07-25T12:24:16.574Z,728.47
2022-07-25T12:26:47.043Z,716.80
2022-07-25T12:29:14.749Z,715.30
2022-07-25T12:31:44.217Z,711.00
2022-07-25T12:34:11.490Z,682.25
2022-07-25T12:36:44.116Z,662.97
2022-07-25T12:39:14.373Z,618.17
2022-07-25T12:41:43.770Z,606.88
2022-07-25T12:44:11.653Z,600.55
2022-07-25T12:46:47.231Z,588.08
2022-07-25T12:49:18.949Z,545.15
2022-07-25T12:51:46.702Z,522.35
2022-07-25T12:54:21.649Z,503.42
2022-07-25T12:56:52.670Z,513.45
2022-07-25T12:59:20.519Z,505.73
2022-07-25T13:01:48.664Z,519.78
2022-07-25T13:04:16.462Z,505.75
2022-07-25T13:06:46.899Z,515.58
2022-07-25T13:09:14.671Z,537.67
2022-07-25T13:11:42.443Z,560.08
2022-07-25T13:14:13.511Z,566.20
2022-07-25T13:16:41.026Z,565.38
2022-07-25T13:19:14.131Z,589.38
2022-07-25T13:21:41.670Z,560.63
2022-07-25T13:24:09.942Z,528.55
2022-07-25T13:26:39.304Z,525.90
2022-07-25T13:29:09.479Z,525.40
2022-07-25T13:31:41.500Z,456.13
2022-07-25T13:34:10.793Z,424.23
2022-07-25T13:36:40.703Z,411.88
2022-07-25T13:39:10.862Z,369.90
2022-07-25T13:41:38.325Z,380.58
2022-07-25T13:44:07.301Z,381.25
2022-07-25T13:46:37.761Z,380.83
2022-07-25T13:49:05.347Z,385.10
2022-07-25T13:51:33.179Z,416.13
2022-07-25T13:54:01.265Z,445.48
2022-07-25T13:56:28.662Z,446.52
2022-07-25T13:58:56.059Z,436.88
2022-07-25T14:01:27.431Z,422.50
2022-07-25T14:03:55.592Z,399.45
2022-07-25T14:06:23.590Z,398.33
2022-07-25T14:08:51.167Z,432.50
2022-07-25T14:11:18.485Z,429.15
2022-07-25T14:13:48.853Z,422.67
2022-07-25T14:16:19.097Z,395.88
2022-07-25T14:18:46.748Z,399.17
2022-07-25T14:21:14.321Z,371.80
2022-07-25T14:23:44.580Z,360.48
2022-07-25T14:26:16.037Z,347.75
2022-07-25T14:28:44.308Z,355.25
2022-07-25T14:31:12.518Z,327.55
2022-07-25T14:33:40.635Z,325.33
2022-07-25T14:36:10.320Z,310.45
2022-07-25T14:38:40.021Z,319.45
2022-07-25T14:41:12.585Z,309.40
2022-07-25T14:43:41.499Z,314.27
2022-07-25T14:46:11.465Z,328.70
2022-07-25T14:48:39.677Z,309.88
2022-07-25T14:51:07.669Z,300.92
2022-07-25T14:53:36.057Z,317.17
2022-07-25T14:56:07.952Z,310.02
2022-07-25T14:58:36.214Z,312.58
2022-07-25T15:01:04.090Z,324.13
2022-07-25T15:03:32.321Z,322.58
2022-07-25T15:06:00.216Z,300.42
2022-07-25T15:08:29.147Z,303.83
2022-07-25T15:10:56.714Z,286.40
2022-07-25T15:13:32.422Z,291.73
2022-07-25T15:16:05.069Z,292.35
2022-07-25T15:18:46.961Z,300.10
2022-07-25T15:21:22.360Z,296.45
2022-07-25T15:23:54.038Z,280.48
2022-07-25T15:26:21.987Z,301.85
2022-07-25T15:28:49.711Z,297.70
2022-07-25T15:31:17.370Z,292.58
2022-07-25T15:33:44.788Z,280.33
2022-07-25T15:36:12.833Z,289.85
2022-07-25T15:38:40.217Z,297.70
2022-07-25T15:41:10.814Z,294.00
2022-07-25T15:43:39.236Z,312.00
2022-07-25T15:46:10.653Z,295.05
2022-07-25T15:48:38.631Z,291.67
2022-07-25T15:51:06.741Z,283.65
2022-07-25T15:53:34.087Z,298.63
2022-07-25T15:56:04.616Z,290.00
2022-07-25T15:58:32.015Z,306.13
2022-07-25T16:01:01.859Z,295.85
2022-07-25T16:03:29.383Z,290.85
2022-07-25T16:05:57.215Z,284.33
2022-07-25T16:08:25.174Z,287.98
2022-07-25T16:10:52.865Z,285.88
2022-07-25T16:13:20.154Z,309.65
2022-07-25T16:15:47.985Z,303.60
2022-07-25T16:18:18.022Z,300.20
2022-07-25T16:20:45.740Z,294.73
2022-07-25T16:23:13.878Z,300.90
2022-07-25T16:25:41.310Z,303.70
2022-07-25T16:28:08.771Z,294.67
2022-07-25T16:30:36.572Z,292.70
2022-07-25T16:33:04.290Z,293.83
2022-07-25T16:35:32.633Z,288.52
2022-07-25T16:38:01.326Z,306.67
2022-07-25T16:40:31.505Z,309.63
2022-07-25T16:42:59.954Z,308.77
2022-07-25T16:45:28.316Z,306.45
2022-07-25T16:47:58.209Z,306.02
2022-07-25T16:50:28.141Z,315.52
2022-07-25T16:52:55.516Z,308.10
2022-07-25T16:55:25.190Z,305.85
2022-07-25T16:57:57.148Z,322.20
2022-07-25T17:00:25.084Z,312.58
2022-07-25T17:02:52.323Z,299.08
2022-07-25T17:05:19.824Z,316.10
2022-07-25T17:07:56.990Z,301.20
2022-07-25T17:10:26.626Z,301.52
2022-07-25T17:12:54.697Z,311.52
2022-07-25T17:15:22.610Z,335.83
2022-07-25T17:17:49.980Z,305.95
2022-07-25T17:20:20.201Z,319.95
2022-07-25T17:22:50.501Z,301.75
2022-07-25T17:25:18.343Z,308.92
2022-07-25T17:27:46.105Z,302.85
2022-07-25T17:30:13.482Z,312.98
2022-07-25T17:32:41.270Z,298.08
2022-07-25T17:35:09.485Z,316.83
2022-07-25T17:37:36.879Z,310.00
2022-07-25T17:40:05.124Z,318.20
2022-07-25T17:42:33.064Z,315.65
2022-07-25T17:45:00.441Z,325.85
2022-07-25T17:47:27.650Z,329.40
2022-07-25T17:49:57.429Z,323.13
2022-07-25T17:52:24.813Z,329.92
2022-07-25T17:54:52.164Z,329.17
2022-07-25T17:57:19.487Z,342.88
2022-07-25T17:59:47.083Z,345.30
2022-07-25T18:02:14.652Z,341.98
2022-07-25T18:04:42.035Z,340.10
2022-07-25T18:07:11.851Z,346.08
2022-07-25T18:09:41.717Z,353.58
2022-07-25T18:12:09.041Z,356.25
2022-07-25T18:14:39.094Z,348.30
2022-07-25T18:17:06.559Z,373.45
2022-07-25T18:19:37.015Z,373.27
2022-07-25T18:22:09.628Z,374.02
2022-07-25T18:24:39.406Z,368.60
2022-07-25T18:27:06.997Z,396.85
2022-07-25T18:29:38.531Z,390.80
2022-07-25T18:32:06.615Z,397.60
2022-07-25T18:34:39.818Z,397.08
2022-07-25T18:37:09.926Z,385.23
2022-07-25T18:39:37.279Z,372.42
2022-07-25T18:42:04.744Z,399.67
2022-07-25T18:44:33.337Z,403.90
2022-07-25T18:47:02.549Z,394.55
2022-07-25T18:49:29.880Z,390.33
2022-07-25T18:51:59.312Z,396.95
2022-07-25T18:54:29.313Z,396.30
2022-07-25T18:56:59.432Z,404.17
2022-07-25T18:59:26.833Z,397.83
2022-07-25T19:01:55.205Z,426.23
2022-07-25T19:04:22.757Z,409.10
2022-07-25T19:06:50.084Z,411.33
2022-07-25T19:09:19.056Z,413.63
2022-07-25T19:11:47.920Z,423.05
2022-07-25T19:14:16.030Z,458.60
2022-07-25T19:16:46.244Z,444.73
2022-07-25T19:19:16.363Z,441.48
2022-07-25T19:21:46.552Z,407.77
2022-07-25T19:24:13.923Z,443.15
2022-07-25T19:26:42.696Z,430.63
2022-07-25T19:29:12.870Z,419.20
2022-07-25T19:31:40.734Z,396.33
2022-07-25T19:34:11.263Z,419.48
2022-07-25T19:36:43.807Z,409.25
2022-07-25T19:39:12.456Z,426.70
2022-07-25T19:41:46.300Z,429.38
2022-07-25T19:44:15.073Z,442.73
2022-07-25T19:46:42.780Z,451.55
2022-07-25T19:49:10.729Z,452.02
2022-07-25T19:51:38.938Z,467.40
2022-07-25T19:54:08.922Z,469.88
2022-07-25T19:56:37.055Z,525.25
2022-07-25T19:59:04.474Z,493.83
2022-07-25T20:01:35.539Z,507.52
2022-07-25T20:04:05.357Z,501.70
2022-07-25T20:06:35.765Z,472.27
2022-07-25T20:09:04.471Z,500.67
2022-07-25T20:11:32.218Z,537.75
2022-07-25T20:14:07.169Z,528.03
2022-07-25T20:16:38.581Z,570.97
2022-07-25T20:19:08.558Z,564.13
2022-07-25T20:21:44.286Z,569.75
2022-07-25T20:24:21.256Z,557.95
2022-07-25T20:26:52.750Z,572.10
2022-07-25T20:29:22.954Z,565.08
2022-07-25T20:31:53.990Z,557.33
2022-07-25T20:34:24.392Z,584.78
2022-07-25T20:36:52.355Z,582.92
2022-07-25T20:39:19.647Z,566.35
2022-07-25T20:41:50.240Z,578.88
2022-07-25T20:44:22.660Z,595.80
2022-07-25T20:46:51.549Z,571.53
2022-07-25T20:49:19.115Z,588.75
2022-07-25T20:51:48.755Z,625.05
2022-07-25T20:54:20.244Z,629.50
2022-07-25T20:56:47.542Z,657.33
2022-07-25T20:59:14.878Z,658.95
2022-07-25T21:01:46.814Z,685.63
2022-07-25T21:04:14.644Z,680.45
2022-07-25T21:06:45.450Z,689.63
2022-07-25T21:09:13.398Z,701.00
2022-07-25T21:11:40.707Z,719.38
2022-07-25T21:14:08.935Z,726.28
2022-07-25T21:16:41.090Z,708.47
2022-07-25T21:19:11.362Z,722.65
2022-07-25T21:21:38.816Z,711.63
2022-07-25T21:24:06.612Z,718.72
2022-07-25T21:26:34.443Z,720.92
2022-07-25T21:29:01.773Z,732.33
2022-07-25T21:31:32.533Z,726.17
2022-07-25T21:34:02.020Z,726.95
2022-07-25T21:36:34.991Z,720.15
2022-07-25T21:39:02.252Z,714.58
2022-07-25T21:41:30.533Z,705.33
2022-07-25T21:44:00.195Z,727.58
2022-07-25T21:46:28.089Z,699.22
2022-07-25T21:49:14.795Z,718.53
2022-07-25T21:51:42.353Z,719.42
2022-07-25T21:54:11.728Z,713.95
2022-07-25T21:56:41.263Z,704.05
2022-07-25T21:59:12.109Z,707.88
2022-07-25T22:01:41.843Z,704.75
2022-07-25T22:04:09.887Z,684.95
2022-07-25T22:06:37.390Z,708.67
2022-07-25T22:09:07.531Z,685.72
2022-07-25T22:11:42.402Z,665.83
2022-07-25T22:14:15.088Z,658.08
2022-07-25T22:16:45.312Z,637.55
2022-07-25T22:19:13.347Z,634.15
2022-07-25T22:21:41.439Z,664.35
2022-07-25T22:24:14.839Z,660.88
2022-07-25T22:29:12.048Z,684.33
2022-07-25T22:31:40.341Z,658.83
2022-07-25T22:34:13.031Z,644.90
2022-07-25T22:36:40.314Z,678.23
2022-07-25T22:39:11.690Z,638.90
2022-07-25T22:41:39.382Z,642.03
2022-07-25T22:44:09.290Z,640.90
2022-07-25T22:46:37.222Z,634.90
2022-07-25T22:49:07.665Z,638.03
2022-07-25T22:51:35.314Z,637.17
2022-07-25T22:54:04.471Z,627.67
2022-07-25T22:56:34.100Z,633.58
2022-07-25T22:59:01.371Z,634.97
2022-07-25T23:01:31.332Z,637.70
2022-07-25T23:03:58.903Z,671.72
2022-07-25T23:06:26.649Z,675.47
2022-07-25T23:08:54.745Z,696.58
2022-07-25T23:11:22.013Z,684.20
2022-07-25T23:13:49.779Z,707.88
2022-07-25T23:16:17.659Z,693.13
2022-07-25T23:18:45.134Z,661.85
2022-07-25T23:21:12.393Z,689.47
2022-07-25T23:23:42.277Z,684.28
2022-07-25T23:26:10.096Z,626.13
2022-07-25T23:28:38.022Z,651.58
2022-07-25T23:31:07.919Z,650.40
2022-07-25T23:33:35.953Z,666.50
2022-07-25T23:36:03.504Z,644.40
2022-07-25T23:38:31.313Z,644.03
2022-07-25T23:40:58.590Z,660.35
2022-07-25T23:43:35.649Z,664.95
2022-07-25T23:46:14.198Z,644.88
2022-07-25T23:48:44.790Z,653.85
2022-07-25T23:51:12.126Z,660.58
2022-07-25T23:53:39.863Z,728.25
2022-07-25T23:56:07.289Z,717.63
2022-07-25T23:58:36.743Z,731.45
